Time,TemperatureF,DewpointF,PressureIn,WindDirection,WindDirectionDegrees,WindSpeedMPH,WindSpeedGustMPH,Humidity,HourlyPrecipIn,Conditions,Clouds,dailyrainin,SolarRadiationWatts/m^2,SoftwareType,DateUTC
2013-01-29 00:00:00,45.5,42.4,30.27,NE,44,0.0,1.0,84,0.00,,,0.00,0.0,meteohub,2013-01-29 05:00:00,
2013-01-29 00:02:00,45.3,41.9,30.27,NE,44,0.0,1.0,83,0.00,,,0.00,0.0,meteohub,2013-01-29 05:02:00,
2013-01-29 00:04:00,45.3,41.9,30.27,NE,44,0.0,1.0,83,0.00,,,0.00,0.0,meteohub,2013-01-29 05:04:00,
2013-01-29 00:09:00,45.3,41.9,30.27,NE,44,0.0,1.0,83,0.00,,,0.00,0.0,meteohub,2013-01-29 05:09:00,
2013-01-29 00:14:00,45.3,41.9,30.27,NE,44,0.0,1.0,83,0.00,,,0.00,0.0,meteohub,2013-01-29 05:14:00,
2013-01-29 00:19:00,45.0,41.5,30.27,NE,44,0.0,1.0,83,0.00,,,0.00,0.0,meteohub,2013-01-29 05:19:00,
2013-01-29 00:24:00,44.6,41.5,30.27,NE,44,0.0,1.0,84,0.00,,,0.00,0.0,meteohub,2013-01-29 05:24:00,
2013-01-29 00:29:00,44.8,42.1,30.27,NE,44,0.0,0.0,85,0.00,,,0.00,0.0,meteohub,2013-01-29 05:29:00,
2013-01-29 00:34:00,45.0,42.3,30.27,NE,44,0.0,0.0,85,0.00,,,0.00,0.0,meteohub,2013-01-29 05:34:00,
2013-01-29 00:39:00,45.1,42.1,30.26,NE,44,0.0,0.0,84,0.00,,,0.00,0.0,meteohub,2013-01-29 05:39:00,
2013-01-29 00:44:00,44.4,41.4,30.26,NE,44,0.0,0.0,84,0.00,,,0.00,0.0,meteohub,2013-01-29 05:44:00,
2013-01-29 00:50:00,44.2,41.5,30.26,NE,44,0.0,0.0,85,0.00,,,0.00,0.0,meteohub,2013-01-29 05:50:00,
2013-01-29 00:55:00,44.2,41.5,30.26,NE,44,0.0,0.0,85,0.00,,,0.00,0.0,meteohub,2013-01-29 05:55:00,
2013-01-29 01:00:00,44.2,41.5,30.26,NE,44,0.0,0.0,85,0.00,,,0.00,0.0,meteohub,2013-01-29 06:00:00,
2013-01-29 01:05:00,44.2,41.5,30.26,NE,44,0.0,0.0,85,0.00,,,0.00,0.0,meteohub,2013-01-29 06:05:00,
2013-01-29 01:10:00,44.4,41.7,30.26,NE,44,0.0,0.0,85,0.00,,,0.00,0.0,meteohub,2013-01-29 06:10:00,
2013-01-29 01:15:00,45.0,42.3,30.26,NE,44,0.0,0.0,85,0.00,,,0.00,0.0,meteohub,2013-01-29 06:15:00,
2013-01-29 01:20:00,44.8,42.1,30.25,NE,44,0.0,0.0,85,0.00,,,0.00,0.0,meteohub,2013-01-29 06:20:00,
2013-01-29 01:25:00,45.0,42.3,30.25,NE,44,0.0,0.0,85,0.00,,,0.00,0.0,meteohub,2013-01-29 06:25:00,
2013-01-29 01:30:00,45.1,42.4,30.25,NE,44,0.0,0.0,85,0.00,,,0.00,0.0,meteohub,2013-01-29 06:30:00,
2013-01-29 01:35:00,45.1,42.4,30.25,NE,44,0.0,0.0,85,0.00,,,0.00,0.0,meteohub,2013-01-29 06:35:00,
2013-01-29 01:40:00,44.4,41.4,30.25,NE,44,0.0,0.0,84,0.00,,,0.00,0.0,meteohub,2013-01-29 06:40:00,
2013-01-29 01:45:00,44.4,41.7,30.25,NE,44,0.0,0.0,85,0.00,,,0.00,0.0,meteohub,2013-01-29 06:45:00,
2013-01-29 01:50:00,44.8,42.1,30.25,NE,44,0.0,0.0,85,0.00,,,0.00,0.0,meteohub,2013-01-29 06:50:00,
2013-01-29 01:55:00,44.4,41.7,30.25,NE,44,0.0,1.0,85,0.00,,,0.00,0.0,meteohub,2013-01-29 06:55:00,
2013-01-29 02:00:00,44.2,41.5,30.25,NE,44,0.0,1.0,85,0.00,,,0.00,0.0,meteohub,2013-01-29 07:00:00,
2013-01-29 02:05:00,44.2,41.5,30.25,NE,44,0.0,1.0,85,0.00,,,0.00,0.0,meteohub,2013-01-29 07:05:00,
2013-01-29 02:10:00,44.2,41.5,30.25,NE,44,0.0,1.0,85,0.00,,,0.00,0.0,meteohub,2013-01-29 07:10:00,
2013-01-29 02:15:00,44.4,41.7,30.25,NE,44,0.0,1.0,85,0.00,,,0.00,0.0,meteohub,2013-01-29 07:15:00,
2013-01-29 02:20:00,44.4,41.9,30.25,NE,44,0.0,1.0,86,0.00,,,0.00,0.0,meteohub,2013-01-29 07:20:00,
2013-01-29 02:25:00,45.0,42.3,30.24,NE,44,0.0,1.0,85,0.00,,,0.00,0.0,meteohub,2013-01-29 07:25:00,
2013-01-29 02:30:00,45.0,42.3,30.24,NE,44,0.0,1.0,85,0.00,,,0.00,0.0,meteohub,2013-01-29 07:30:00,
2013-01-29 02:35:00,45.0,42.3,30.24,NE,44,0.0,1.0,85,0.00,,,0.00,0.0,meteohub,2013-01-29 07:35:00,
2013-01-29 02:40:00,45.0,42.3,30.25,NE,44,0.0,1.0,85,0.00,,,0.00,0.0,meteohub,2013-01-29 07:40:00,
2013-01-29 02:45:00,45.0,42.3,30.25,NE,44,0.0,1.0,85,0.00,,,0.00,0.0,meteohub,2013-01-29 07:45:00,
2013-01-29 02:50:00,45.0,42.3,30.25,NE,44,0.0,1.0,85,0.00,,,0.00,0.0,meteohub,2013-01-29 07:50:00,
2013-01-29 02:55:00,45.0,42.3,30.25,NE,44,0.0,0.0,85,0.00,,,0.00,0.0,meteohub,2013-01-29 07:55:00,
2013-01-29 03:00:00,45.0,42.3,30.24,NE,44,0.0,0.0,85,0.00,,,0.00,0.0,meteohub,2013-01-29 08:00:00,
2013-01-29 03:05:00,45.0,42.3,30.24,NE,44,0.0,0.0,85,0.00,,,0.00,0.0,meteohub,2013-01-29 08:05:00,
2013-01-29 03:10:00,45.0,42.3,30.24,NE,44,0.0,0.0,85,0.00,,,0.00,0.0,meteohub,2013-01-29 08:10:00,
2013-01-29 03:15:00,45.1,42.4,30.24,NE,44,0.0,0.0,85,0.00,,,0.00,0.0,meteohub,2013-01-29 08:15:00,
2013-01-29 03:20:00,45.1,42.4,30.24,NE,44,0.0,1.0,85,0.00,,,0.00,0.0,meteohub,2013-01-29 08:20:00,
2013-01-29 03:25:00,45.3,42.6,30.24,NE,44,0.0,2.0,85,0.00,,,0.00,0.0,meteohub,2013-01-29 08:25:00,
2013-01-29 03:30:00,45.3,42.6,30.24,NE,44,0.0,2.0,85,0.00,,,0.00,0.0,meteohub,2013-01-29 08:30:00,
2013-01-29 03:35:00,45.7,43.0,30.24,NE,44,3.0,3.0,85,0.00,,,0.00,0.0,meteohub,2013-01-29 08:35:00,
2013-01-29 03:40:00,45.7,42.6,30.24,NE,44,0.0,3.0,84,0.00,,,0.00,0.0,meteohub,2013-01-29 08:40:00,
2013-01-29 03:45:00,45.9,42.8,30.24,NE,44,0.0,3.0,84,0.00,,,0.00,0.0,meteohub,2013-01-29 08:45:00,
2013-01-29 03:50:00,46.0,43.0,30.24,NE,44,0.0,3.0,84,0.00,,,0.00,0.0,meteohub,2013-01-29 08:50:00,
2013-01-29 03:55:00,46.0,43.0,30.24,NE,44,0.0,1.0,84,0.00,,,0.00,0.0,meteohub,2013-01-29 08:55:00,
2013-01-29 04:00:00,46.0,43.0,30.24,NE,44,0.0,1.0,84,0.00,,,0.00,0.0,meteohub,2013-01-29 09:00:00,
2013-01-29 04:05:00,46.0,43.0,30.23,NE,44,0.0,2.0,84,0.00,,,0.00,0.0,meteohub,2013-01-29 09:05:00,
2013-01-29 04:10:00,46.0,43.0,30.23,NE,44,0.0,2.0,84,0.00,,,0.00,0.0,meteohub,2013-01-29 09:10:00,
2013-01-29 04:15:00,46.0,43.0,30.23,NE,44,0.0,1.0,84,0.00,,,0.00,0.0,meteohub,2013-01-29 09:15:00,
2013-01-29 04:20:00,46.0,43.0,30.23,NE,44,0.0,1.0,84,0.00,,,0.00,0.0,meteohub,2013-01-29 09:20:00,
2013-01-29 04:25:00,46.0,43.0,30.23,NE,44,0.0,1.0,84,0.00,,,0.00,0.0,meteohub,2013-01-29 09:25:00,
2013-01-29 04:30:00,46.0,43.0,30.22,NE,44,0.0,2.0,84,0.00,,,0.00,0.0,meteohub,2013-01-29 09:30:00,
2013-01-29 04:35:00,46.0,43.0,30.22,NE,44,0.0,2.0,84,0.00,,,0.00,0.0,meteohub,2013-01-29 09:35:00,
2013-01-29 04:40:00,46.0,43.0,30.22,NE,44,0.0,2.0,84,0.00,,,0.00,0.0,meteohub,2013-01-29 09:40:00,
2013-01-29 04:45:00,46.0,43.0,30.22,NE,44,0.0,1.0,84,0.00,,,0.00,0.0,meteohub,2013-01-29 09:45:00,
2013-01-29 04:51:00,46.0,43.0,30.22,NE,44,0.0,1.0,84,0.00,,,0.00,0.0,meteohub,2013-01-29 09:51:00,
2013-01-29 04:55:00,46.0,43.0,30.22,NE,44,0.0,1.0,84,0.00,,,0.00,0.0,meteohub,2013-01-29 09:55:00,
2013-01-29 05:01:00,46.0,43.0,30.22,NE,44,0.0,1.0,84,0.00,,,0.00,0.0,meteohub,2013-01-29 10:01:00,
2013-01-29 05:06:00,46.0,43.0,30.21,NE,44,0.0,1.0,84,0.00,,,0.00,0.0,meteohub,2013-01-29 10:06:00,
2013-01-29 05:11:00,46.0,43.0,30.21,NE,44,0.0,1.0,84,0.00,,,0.00,0.0,meteohub,2013-01-29 10:11:00,
2013-01-29 05:16:00,46.0,43.0,30.21,NE,44,0.0,0.0,84,0.00,,,0.00,0.0,meteohub,2013-01-29 10:16:00,
2013-01-29 05:21:00,46.0,43.0,30.21,NE,44,0.0,1.0,84,0.00,,,0.00,0.0,meteohub,2013-01-29 10:21:00,
2013-01-29 05:26:00,46.2,43.2,30.21,NE,44,0.0,1.0,84,0.00,,,0.00,0.0,meteohub,2013-01-29 10:26:00,
2013-01-29 05:31:00,46.2,43.2,30.21,NE,44,0.0,1.0,84,0.00,,,0.00,0.0,meteohub,2013-01-29 10:31:00,
2013-01-29 05:36:00,46.0,43.0,30.21,NE,44,0.0,1.0,84,0.00,,,0.00,0.0,meteohub,2013-01-29 10:36:00,
2013-01-29 05:41:00,46.0,43.0,30.21,NE,44,0.0,1.0,84,0.00,,,0.00,0.0,meteohub,2013-01-29 10:41:00,
2013-01-29 05:46:00,46.0,43.0,30.20,NE,44,0.0,1.0,84,0.00,,,0.00,0.0,meteohub,2013-01-29 10:46:00,
2013-01-29 05:51:00,46.2,43.2,30.20,NE,44,0.0,1.0,84,0.00,,,0.00,0.0,meteohub,2013-01-29 10:51:00,
2013-01-29 05:56:00,46.2,43.2,30.20,NE,44,0.0,1.0,84,0.00,,,0.00,0.0,meteohub,2013-01-29 10:56:00,
2013-01-29 06:01:00,46.4,43.3,30.20,NE,44,0.0,1.0,84,0.00,,,0.00,0.0,meteohub,2013-01-29 11:01:00,
2013-01-29 06:06:00,46.4,43.3,30.20,NE,44,0.0,1.0,84,0.00,,,0.00,0.0,meteohub,2013-01-29 11:06:00,
2013-01-29 06:11:00,46.6,43.5,30.20,NE,44,0.0,1.0,84,0.00,,,0.00,0.0,meteohub,2013-01-29 11:11:00,
2013-01-29 06:16:00,46.6,43.5,30.21,NE,44,0.0,1.0,84,0.00,,,0.00,0.0,meteohub,2013-01-29 11:16:00,
2013-01-29 06:21:00,46.6,43.5,30.20,NE,44,0.0,1.0,84,0.00,,,0.00,0.0,meteohub,2013-01-29 11:21:00,
2013-01-29 06:26:00,46.8,44.1,30.20,NE,44,0.0,1.0,85,0.00,,,0.00,0.0,meteohub,2013-01-29 11:26:00,
2013-01-29 06:31:00,46.9,44.2,30.20,NE,44,0.0,1.0,85,0.00,,,0.00,0.0,meteohub,2013-01-29 11:31:00,
2013-01-29 06:36:00,46.9,44.2,30.20,NE,44,0.0,1.0,85,0.00,,,0.00,0.0,meteohub,2013-01-29 11:36:00,
2013-01-29 06:41:00,47.1,44.1,30.20,NE,44,0.0,1.0,84,0.00,,,0.00,0.0,meteohub,2013-01-29 11:41:00,
2013-01-29 06:46:00,47.3,44.2,30.20,NE,44,0.0,1.0,84,0.00,,,0.00,0.0,meteohub,2013-01-29 11:46:00,
2013-01-29 06:51:00,47.3,44.2,30.20,NE,44,1.0,1.0,84,0.00,,,0.00,0.0,meteohub,2013-01-29 11:51:00,
2013-01-29 06:56:00,47.5,44.4,30.20,NE,44,0.0,1.0,84,0.00,,,0.00,0.0,meteohub,2013-01-29 11:56:00,
2013-01-29 07:01:00,47.7,44.6,30.20,NE,44,0.0,1.0,84,0.00,,,0.00,0.0,meteohub,2013-01-29 12:01:00,
2013-01-29 07:06:00,47.8,44.8,30.20,NE,44,0.0,1.0,84,0.00,,,0.00,0.0,meteohub,2013-01-29 12:06:00,
2013-01-29 07:11:00,47.8,44.8,30.20,NE,44,0.0,2.0,84,0.00,,,0.00,0.0,meteohub,2013-01-29 12:11:00,
2013-01-29 07:16:00,48.0,45.0,30.20,NE,44,0.0,2.0,84,0.00,,,0.00,0.0,meteohub,2013-01-29 12:16:00,
2013-01-29 07:21:00,48.2,45.1,30.20,NE,44,2.0,2.0,84,0.00,,,0.00,0.0,meteohub,2013-01-29 12:21:00,
2013-01-29 07:26:00,48.4,45.3,30.20,NE,44,1.0,2.0,84,0.00,,,0.00,0.0,meteohub,2013-01-29 12:26:00,
2013-01-29 07:31:00,48.6,45.5,30.20,NE,44,2.0,4.0,84,0.00,,,0.00,0.0,meteohub,2013-01-29 12:31:00,
2013-01-29 07:36:00,48.7,45.7,30.20,NE,44,1.0,4.0,84,0.00,,,0.00,0.0,meteohub,2013-01-29 12:36:00,
2013-01-29 07:41:00,48.7,45.7,30.20,NE,44,0.0,4.0,84,0.00,,,0.00,0.0,meteohub,2013-01-29 12:41:00,
2013-01-29 07:46:00,48.7,45.7,30.20,NE,44,0.0,3.0,84,0.00,,,0.00,6.0,meteohub,2013-01-29 12:46:00,
2013-01-29 07:51:00,48.9,45.9,30.20,NE,44,0.0,3.0,84,0.00,,,0.00,8.4,meteohub,2013-01-29 12:51:00,
2013-01-29 07:56:00,49.1,46.0,30.19,NE,44,0.0,1.0,84,0.00,,,0.00,10.8,meteohub,2013-01-29 12:56:00,
2013-01-29 08:01:00,49.3,46.2,30.19,NE,44,0.0,1.0,84,0.00,,,0.00,16.8,meteohub,2013-01-29 13:01:00,
2013-01-29 08:07:00,49.5,46.4,30.19,NE,44,0.0,2.0,84,0.00,,,0.00,19.2,meteohub,2013-01-29 13:07:00,
2013-01-29 08:12:00,49.6,46.6,30.19,NE,44,0.0,2.0,84,0.00,,,0.00,27.6,meteohub,2013-01-29 13:12:00,
2013-01-29 08:17:00,50.2,47.3,30.19,NE,44,0.0,2.0,85,0.00,,,0.00,22.8,meteohub,2013-01-29 13:17:00,
2013-01-29 08:22:00,50.5,47.7,30.19,NE,44,0.0,2.0,85,0.00,,,0.00,36.0,meteohub,2013-01-29 13:22:00,
2013-01-29 08:27:00,50.5,47.7,30.19,NE,44,0.0,2.0,85,0.00,,,0.00,25.2,meteohub,2013-01-29 13:27:00,
2013-01-29 08:32:00,50.7,47.8,30.19,NE,44,0.0,1.0,85,0.00,,,0.00,22.8,meteohub,2013-01-29 13:32:00,
2013-01-29 08:37:00,50.9,48.4,30.19,NE,44,0.0,1.0,86,0.00,,,0.00,27.6,meteohub,2013-01-29 13:37:00,
2013-01-29 08:42:00,50.9,48.4,30.19,NE,44,0.0,2.0,86,0.00,,,0.00,74.4,meteohub,2013-01-29 13:42:00,
2013-01-29 08:47:00,51.1,48.6,30.19,NE,44,2.0,4.0,86,0.00,,,0.00,42.0,meteohub,2013-01-29 13:47:00,
2013-01-29 08:52:00,51.3,48.7,30.19,NE,44,0.0,4.0,86,0.00,,,0.00,55.2,meteohub,2013-01-29 13:52:00,
2013-01-29 08:57:00,51.4,49.3,30.19,NE,44,0.0,4.0,87,0.00,,,0.00,75.6,meteohub,2013-01-29 13:57:00,
2013-01-29 09:02:00,51.6,49.1,30.20,ENE,66,0.0,3.0,86,0.00,,,0.00,100.8,meteohub,2013-01-29 14:02:00,
2013-01-29 09:07:00,52.0,49.5,30.20,ENE,66,0.0,5.0,86,0.00,,,0.00,82.8,meteohub,2013-01-29 14:07:00,
2013-01-29 09:12:00,52.2,49.6,30.20,ENE,66,1.0,5.0,86,0.00,,,0.00,88.8,meteohub,2013-01-29 14:12:00,
2013-01-29 09:17:00,52.3,49.8,30.20,ENE,66,0.0,3.0,86,0.00,,,0.00,78.0,meteohub,2013-01-29 14:17:00,
2013-01-29 09:22:00,52.5,50.0,30.20,ENE,63,0.0,5.0,86,0.00,,,0.00,58.8,meteohub,2013-01-29 14:22:00,
2013-01-29 09:27:00,52.7,49.8,30.20,ENE,63,0.0,5.0,85,0.00,,,0.00,74.4,meteohub,2013-01-29 14:27:00,
2013-01-29 09:32:00,52.9,50.0,30.19,ENE,63,0.0,5.0,85,0.00,,,0.00,91.2,meteohub,2013-01-29 14:32:00,
2013-01-29 09:37:00,53.2,50.0,30.19,ENE,63,0.0,3.0,84,0.00,,,0.00,84.0,meteohub,2013-01-29 14:37:00,
2013-01-29 09:42:00,53.4,50.2,30.19,ENE,63,0.0,3.0,84,0.00,,,0.00,116.4,meteohub,2013-01-29 14:42:00,
2013-01-29 09:47:00,53.8,50.5,30.19,ENE,63,0.0,3.0,84,0.00,,,0.00,162.0,meteohub,2013-01-29 14:47:00,
2013-01-29 09:52:00,54.3,50.9,30.19,ENE,63,0.0,3.0,83,0.00,,,0.00,160.8,meteohub,2013-01-29 14:52:00,
2013-01-29 09:57:00,54.7,50.9,30.19,ENE,63,0.0,3.0,82,0.00,,,0.00,145.2,meteohub,2013-01-29 14:57:00,
2013-01-29 10:02:00,54.9,51.1,30.19,NE,41,0.0,4.0,82,0.00,,,0.00,230.4,meteohub,2013-01-29 15:02:00,
2013-01-29 10:07:00,55.4,51.6,30.19,NE,41,0.0,4.0,82,0.00,,,0.00,150.0,meteohub,2013-01-29 15:07:00,
2013-01-29 10:12:00,55.9,51.8,30.19,NE,41,0.0,4.0,81,0.00,,,0.00,150.0,meteohub,2013-01-29 15:12:00,
2013-01-29 10:17:00,55.9,51.8,30.19,NE,41,0.0,4.0,81,0.00,,,0.00,158.4,meteohub,2013-01-29 15:17:00,
2013-01-29 10:22:00,56.3,52.5,30.19,NE,41,0.0,1.0,82,0.00,,,0.00,178.8,meteohub,2013-01-29 15:22:00,
2013-01-29 10:27:00,56.8,52.7,30.19,NE,41,0.0,2.0,81,0.00,,,0.00,187.2,meteohub,2013-01-29 15:27:00,
2013-01-29 10:32:00,56.8,52.7,30.19,NE,41,0.0,2.0,81,0.00,,,0.00,126.0,meteohub,2013-01-29 15:32:00,
2013-01-29 10:37:00,57.2,53.1,30.19,NE,41,0.0,2.0,81,0.00,,,0.00,242.4,meteohub,2013-01-29 15:37:00,
2013-01-29 10:42:00,57.9,53.8,30.19,NE,41,0.0,1.0,81,0.00,,,0.00,247.2,meteohub,2013-01-29 15:42:00,
2013-01-29 10:47:00,58.5,54.0,30.19,NE,41,0.0,1.0,80,0.00,,,0.00,231.6,meteohub,2013-01-29 15:47:00,
2013-01-29 10:52:00,59.0,54.9,30.19,NE,41,0.0,1.0,81,0.00,,,0.00,145.2,meteohub,2013-01-29 15:52:00,
2013-01-29 10:57:00,59.2,54.0,30.19,NE,41,0.0,1.0,78,0.00,,,0.00,181.2,meteohub,2013-01-29 15:57:00,
2013-01-29 11:02:00,60.1,54.9,30.19,NE,41,0.0,1.0,78,0.00,,,0.00,535.2,meteohub,2013-01-29 16:02:00,
2013-01-29 11:07:00,61.0,55.4,30.18,NE,41,0.0,2.0,77,0.00,,,0.00,517.2,meteohub,2013-01-29 16:07:00,
2013-01-29 11:12:00,62.1,55.8,30.18,WSW,238,0.0,2.0,75,0.00,,,0.00,576.0,meteohub,2013-01-29 16:12:00,
2013-01-29 11:17:00,62.8,56.1,30.18,WSW,239,0.0,3.0,74,0.00,,,0.00,384.0,meteohub,2013-01-29 16:17:00,
2013-01-29 11:22:00,63.1,56.1,30.18,NW,316,0.0,3.0,73,0.00,,,0.00,358.8,meteohub,2013-01-29 16:22:00,
2013-01-29 11:27:00,63.1,56.1,30.17,NW,317,0.0,1.0,73,0.00,,,0.00,520.8,meteohub,2013-01-29 16:27:00,
2013-01-29 11:32:00,63.0,55.9,30.17,SSW,202,0.0,1.0,73,0.00,,,0.00,170.4,meteohub,2013-01-29 16:32:00,
2013-01-29 11:37:00,63.0,55.9,30.17,SSW,202,0.0,1.0,73,0.00,,,0.00,169.2,meteohub,2013-01-29 16:37:00,
2013-01-29 11:42:00,62.6,55.9,30.17,SSW,202,0.0,1.0,74,0.00,,,0.00,124.8,meteohub,2013-01-29 16:42:00,
2013-01-29 11:47:00,62.4,55.8,30.16,SSW,202,0.0,1.0,74,0.00,,,0.00,130.8,meteohub,2013-01-29 16:47:00,
2013-01-29 11:52:00,62.4,55.8,30.16,SSW,202,0.0,1.0,74,0.00,,,0.00,152.4,meteohub,2013-01-29 16:52:00,
2013-01-29 11:57:00,62.8,56.1,30.16,SSW,202,0.0,1.0,74,0.00,,,0.00,145.2,meteohub,2013-01-29 16:57:00,
2013-01-29 12:02:00,62.8,56.1,30.16,SSW,202,0.0,1.0,74,0.00,,,0.00,183.6,meteohub,2013-01-29 17:02:00,
2013-01-29 12:07:00,62.8,55.8,30.15,SSW,202,0.0,2.0,73,0.00,,,0.00,183.6,meteohub,2013-01-29 17:07:00,
2013-01-29 12:12:00,63.3,56.3,30.15,SSW,202,0.0,2.0,73,0.00,,,0.00,189.6,meteohub,2013-01-29 17:12:00,
2013-01-29 12:17:00,63.3,56.3,30.14,SSW,202,0.0,2.0,73,0.00,,,0.00,234.0,meteohub,2013-01-29 17:17:00,
2013-01-29 12:22:00,63.9,56.5,30.14,South,178,0.0,1.0,72,0.00,,,0.00,234.0,meteohub,2013-01-29 17:22:00,
2013-01-29 12:27:00,64.0,56.7,30.13,ESE,111,1.0,1.0,72,0.00,,,0.00,270.0,meteohub,2013-01-29 17:27:00,
2013-01-29 12:32:00,64.2,56.8,30.13,ENE,66,0.0,1.0,72,0.00,,,0.00,312.0,meteohub,2013-01-29 17:32:00,
2013-01-29 12:37:00,64.4,56.7,30.13,ENE,66,0.0,3.0,71,0.00,,,0.00,228.0,meteohub,2013-01-29 17:37:00,
2013-01-29 12:42:00,64.9,57.2,30.12,ENE,66,0.0,3.0,71,0.00,,,0.00,283.2,meteohub,2013-01-29 17:42:00,
2013-01-29 12:47:00,65.7,57.6,30.12,NE,37,0.0,4.0,70,0.00,,,0.00,537.6,meteohub,2013-01-29 17:47:00,
2013-01-29 12:52:00,66.4,57.9,30.12,NE,46,0.0,5.0,69,0.00,,,0.00,350.4,meteohub,2013-01-29 17:52:00,
2013-01-29 12:57:00,66.9,57.9,30.11,NE,46,0.0,5.0,68,0.00,,,0.00,312.0,meteohub,2013-01-29 17:57:00,
2013-01-29 13:02:00,67.5,58.1,30.11,NE,46,0.0,5.0,67,0.00,,,0.00,316.8,meteohub,2013-01-29 18:02:00,
2013-01-29 13:07:00,68.2,58.8,30.11,NE,46,0.0,2.0,67,0.00,,,0.00,924.0,meteohub,2013-01-29 18:07:00,
2013-01-29 13:12:00,69.4,58.8,30.10,NE,43,0.0,2.0,64,0.00,,,0.00,723.6,meteohub,2013-01-29 18:12:00,
2013-01-29 13:17:00,70.2,59.2,30.09,WSW,238,0.0,4.0,63,0.00,,,0.00,715.2,meteohub,2013-01-29 18:17:00,
2013-01-29 13:22:00,70.5,59.0,30.09,SW,226,1.0,4.0,62,0.00,,,0.00,537.6,meteohub,2013-01-29 18:22:00,
2013-01-29 13:27:00,70.3,59.4,30.09,WSW,241,0.0,4.0,63,0.00,,,0.00,300.0,meteohub,2013-01-29 18:27:00,
2013-01-29 13:32:00,70.2,59.2,30.08,NNE,14,0.0,4.0,63,0.00,,,0.00,208.8,meteohub,2013-01-29 18:32:00,
2013-01-29 13:37:00,70.3,59.4,30.08,SE,132,1.0,5.0,63,0.00,,,0.00,309.6,meteohub,2013-01-29 18:37:00,
2013-01-29 13:42:00,70.3,58.8,30.07,SE,132,0.0,5.0,62,0.00,,,0.00,255.6,meteohub,2013-01-29 18:42:00,
2013-01-29 13:47:00,70.5,59.0,30.07,SSW,212,4.0,5.0,62,0.00,,,0.00,384.0,meteohub,2013-01-29 18:47:00,
2013-01-29 13:52:00,71.1,59.5,30.06,SSW,213,0.0,5.0,62,0.00,,,0.00,326.4,meteohub,2013-01-29 18:52:00,
2013-01-29 13:57:00,71.4,59.5,30.06,WSW,257,0.0,4.0,61,0.00,,,0.00,342.0,meteohub,2013-01-29 18:57:00,
2013-01-29 14:02:00,72.0,59.5,30.05,West,264,0.0,4.0,60,0.00,,,0.00,301.2,meteohub,2013-01-29 19:02:00,
2013-01-29 14:07:00,71.8,59.4,30.05,WSW,238,2.0,4.0,60,0.00,,,0.00,187.2,meteohub,2013-01-29 19:07:00,
2013-01-29 14:12:00,71.2,59.4,30.05,ENE,59,0.0,4.0,61,0.00,,,0.00,228.0,meteohub,2013-01-29 19:12:00,
2013-01-29 14:17:00,71.6,59.7,30.05,NE,53,0.0,4.0,61,0.00,,,0.00,250.8,meteohub,2013-01-29 19:17:00,
2013-01-29 14:22:00,72.1,59.7,30.05,SW,221,0.0,5.0,60,0.00,,,0.00,242.4,meteohub,2013-01-29 19:22:00,
2013-01-29 14:27:00,72.0,59.5,30.05,SW,222,0.0,8.0,60,0.00,,,0.00,297.6,meteohub,2013-01-29 19:27:00,
2013-01-29 14:32:00,72.9,60.4,30.05,WSW,240,1.0,8.0,60,0.00,,,0.00,308.4,meteohub,2013-01-29 19:32:00,
2013-01-29 14:37:00,72.5,59.5,30.04,ESE,114,1.0,8.0,59,0.00,,,0.00,267.6,meteohub,2013-01-29 19:37:00,
2013-01-29 14:42:00,72.1,59.7,30.04,ENE,58,0.0,6.0,60,0.00,,,0.00,223.2,meteohub,2013-01-29 19:42:00,
2013-01-29 14:47:00,71.8,59.7,30.05,SW,226,0.0,6.0,61,0.00,,,0.00,225.6,meteohub,2013-01-29 19:47:00,
2013-01-29 14:52:00,71.8,59.7,30.04,WSW,242,0.0,4.0,61,0.00,,,0.00,206.4,meteohub,2013-01-29 19:52:00,
2013-01-29 14:57:00,71.6,59.7,30.04,SW,225,1.0,7.0,61,0.00,,,0.00,172.8,meteohub,2013-01-29 19:57:00,
2013-01-29 14:58:00,71.4,59.5,30.04,SW,225,0.0,7.0,61,0.00,,,0.00,214.8,meteohub,2013-01-29 19:58:00,
2013-01-29 15:03:00,71.6,59.7,30.04,WSW,244,1.0,7.0,61,0.00,,,0.00,130.8,meteohub,2013-01-29 20:03:00,
2013-01-29 15:08:00,71.4,59.5,30.04,WSW,244,1.0,6.0,61,0.00,,,0.00,50.4,meteohub,2013-01-29 20:08:00,
2013-01-29 15:13:00,70.9,59.4,30.04,WSW,244,0.0,6.0,62,0.00,,,0.00,78.0,meteohub,2013-01-29 20:13:00,
2013-01-29 15:18:00,70.7,59.5,30.04,NE,47,0.0,2.0,63,0.00,,,0.00,99.6,meteohub,2013-01-29 20:18:00,
2013-01-29 15:23:00,70.9,59.7,30.03,WSW,242,0.0,4.0,63,0.00,,,0.00,67.2,meteohub,2013-01-29 20:23:00,
2013-01-29 15:28:00,70.5,59.4,30.03,WSW,242,0.0,4.0,63,0.00,,,0.00,48.0,meteohub,2013-01-29 20:28:00,
2013-01-29 15:33:00,70.3,59.4,30.03,WSW,242,0.0,4.0,63,0.00,,,0.00,39.6,meteohub,2013-01-29 20:33:00,
2013-01-29 15:38:00,70.2,59.5,30.03,WSW,242,0.0,1.0,64,0.00,,,0.00,33.6,meteohub,2013-01-29 20:38:00,
2013-01-29 15:43:00,70.0,59.4,30.03,WSW,242,0.0,1.0,64,0.00,,,0.00,38.4,meteohub,2013-01-29 20:43:00,
2013-01-29 15:48:00,70.0,59.4,30.04,WSW,242,0.0,1.0,64,0.00,,,0.00,30.0,meteohub,2013-01-29 20:48:00,
2013-01-29 15:53:00,70.0,59.4,30.04,WSW,242,0.0,0.0,64,0.00,,,0.00,33.6,meteohub,2013-01-29 20:53:00,
2013-01-29 15:58:00,70.0,59.7,30.04,WSW,242,0.0,0.0,65,0.00,,,0.00,86.4,meteohub,2013-01-29 20:58:00,
2013-01-29 16:03:00,70.2,59.9,30.03,WSW,242,0.0,1.0,65,0.00,,,0.00,75.6,meteohub,2013-01-29 21:03:00,
2013-01-29 16:08:00,70.2,60.6,30.04,WSW,242,0.0,1.0,67,0.00,,,0.00,61.2,meteohub,2013-01-29 21:08:00,
2013-01-29 16:13:00,70.0,60.6,30.04,WSW,242,0.0,1.0,67,0.00,,,0.00,64.8,meteohub,2013-01-29 21:13:00,
2013-01-29 16:18:00,70.2,60.3,30.03,WSW,242,0.0,0.0,66,0.00,,,0.00,69.6,meteohub,2013-01-29 21:18:00,
2013-01-29 16:23:00,70.2,60.3,30.03,WSW,242,0.0,0.0,66,0.00,,,0.00,48.0,meteohub,2013-01-29 21:23:00,
2013-01-29 16:28:00,70.2,60.3,30.03,WSW,242,0.0,0.0,66,0.00,,,0.00,64.8,meteohub,2013-01-29 21:28:00,
2013-01-29 16:33:00,70.2,60.3,30.03,WSW,242,0.0,0.0,66,0.00,,,0.00,86.4,meteohub,2013-01-29 21:33:00,
2013-01-29 16:38:00,70.3,60.4,30.02,WSW,242,0.0,0.0,66,0.00,,,0.00,91.2,meteohub,2013-01-29 21:38:00,
2013-01-29 16:43:00,70.3,60.4,30.02,WSW,242,0.0,0.0,66,0.00,,,0.00,147.6,meteohub,2013-01-29 21:43:00,
2013-01-29 16:48:00,70.7,60.8,30.01,East,86,0.0,0.0,66,0.00,,,0.00,84.0,meteohub,2013-01-29 21:48:00,
2013-01-29 16:53:00,70.5,60.3,30.01,South,172,0.0,3.0,65,0.00,,,0.00,139.2,meteohub,2013-01-29 21:53:00,
2013-01-29 16:58:00,70.5,60.6,30.01,South,171,0.0,3.0,66,0.00,,,0.00,150.0,meteohub,2013-01-29 21:58:00,
2013-01-29 17:03:00,70.5,60.6,30.00,ENE,71,0.0,4.0,66,0.00,,,0.00,56.4,meteohub,2013-01-29 22:03:00,
2013-01-29 17:08:00,70.3,60.4,30.00,ENE,71,0.0,4.0,66,0.00,,,0.00,58.8,meteohub,2013-01-29 22:08:00,
2013-01-29 17:13:00,70.2,60.3,30.00,SW,228,0.0,4.0,66,0.00,,,0.00,50.4,meteohub,2013-01-29 22:13:00,
2013-01-29 17:18:00,70.0,60.6,30.00,SW,228,0.0,3.0,67,0.00,,,0.00,39.6,meteohub,2013-01-29 22:18:00,
2013-01-29 17:23:00,69.6,60.6,30.00,SW,228,0.0,3.0,68,0.00,,,0.00,30.0,meteohub,2013-01-29 22:23:00,
2013-01-29 17:28:00,69.4,60.4,30.00,SW,228,0.0,3.0,68,0.00,,,0.00,19.2,meteohub,2013-01-29 22:28:00,
2013-01-29 17:33:00,69.4,60.4,30.00,ENE,67,0.0,3.0,68,0.00,,,0.00,21.6,meteohub,2013-01-29 22:33:00,
2013-01-29 17:38:00,69.3,60.3,30.00,ENE,67,0.0,3.0,68,0.00,,,0.00,13.2,meteohub,2013-01-29 22:38:00,
2013-01-29 17:43:00,69.1,60.4,30.00,ENE,67,0.0,3.0,69,0.00,,,0.00,10.8,meteohub,2013-01-29 22:43:00,
2013-01-29 17:48:00,69.1,60.4,29.99,ENE,67,0.0,1.0,69,0.00,,,0.00,8.4,meteohub,2013-01-29 22:48:00,
2013-01-29 17:53:00,68.9,60.6,29.99,ENE,67,0.0,0.0,70,0.00,,,0.00,8.4,meteohub,2013-01-29 22:53:00,
2013-01-29 17:58:00,69.1,60.8,29.99,ENE,67,0.0,1.0,70,0.00,,,0.00,8.4,meteohub,2013-01-29 22:58:00,
2013-01-29 18:03:00,68.7,60.4,29.99,NE,39,0.0,1.0,70,0.00,,,0.00,0.0,meteohub,2013-01-29 23:03:00,
2013-01-29 18:08:00,68.5,60.3,29.98,NE,39,0.0,4.0,70,0.00,,,0.00,0.0,meteohub,2013-01-29 23:08:00,
2013-01-29 18:13:00,68.4,60.4,29.98,NE,36,3.0,4.0,71,0.00,,,0.00,0.0,meteohub,2013-01-29 23:13:00,
2013-01-29 18:18:00,68.0,60.4,29.98,WNW,298,0.0,4.0,72,0.00,,,0.00,0.0,meteohub,2013-01-29 23:18:00,
2013-01-29 18:24:00,68.0,60.4,29.98,WNW,299,0.0,3.0,72,0.00,,,0.00,0.0,meteohub,2013-01-29 23:24:00,
2013-01-29 18:28:00,68.0,60.4,29.98,WNW,299,0.0,3.0,72,0.00,,,0.00,0.0,meteohub,2013-01-29 23:28:00,
2013-01-29 18:34:00,67.8,60.3,29.98,WNW,299,0.0,1.0,72,0.00,,,0.00,0.0,meteohub,2013-01-29 23:34:00,
2013-01-29 18:39:00,67.6,60.6,29.98,WNW,299,0.0,1.0,73,0.00,,,0.00,0.0,meteohub,2013-01-29 23:39:00,
2013-01-29 18:44:00,67.3,60.3,29.98,NW,321,0.0,1.0,73,0.00,,,0.00,0.0,meteohub,2013-01-29 23:44:00,
2013-01-29 18:49:00,67.5,60.4,29.98,NW,321,0.0,1.0,73,0.00,,,0.00,0.0,meteohub,2013-01-29 23:49:00,
2013-01-29 18:54:00,67.3,60.6,29.98,NW,321,0.0,1.0,74,0.00,,,0.00,0.0,meteohub,2013-01-29 23:54:00,
2013-01-29 18:59:00,67.3,60.6,29.98,NE,51,2.0,2.0,74,0.00,,,0.00,0.0,meteohub,2013-01-29 23:59:00,
2013-01-29 19:04:00,67.3,60.6,29.98,NE,54,0.0,9.0,74,0.00,,,0.00,0.0,meteohub,2013-01-30 00:04:00,
2013-01-29 19:09:00,67.3,60.6,29.98,NE,54,0.0,9.0,74,0.00,,,0.00,0.0,meteohub,2013-01-30 00:09:00,
2013-01-29 19:14:00,67.5,60.8,29.99,NE,54,0.0,9.0,74,0.00,,,0.00,0.0,meteohub,2013-01-30 00:14:00,
2013-01-29 19:19:00,67.5,60.8,29.99,NE,54,0.0,1.0,74,0.00,,,0.00,0.0,meteohub,2013-01-30 00:19:00,
2013-01-29 19:24:00,67.5,60.8,29.99,East,82,0.0,1.0,74,0.00,,,0.00,0.0,meteohub,2013-01-30 00:24:00,
2013-01-29 19:29:00,67.5,60.8,29.99,East,90,0.0,1.0,74,0.00,,,0.00,0.0,meteohub,2013-01-30 00:29:00,
2013-01-29 19:34:00,67.6,61.2,29.99,East,90,0.0,1.0,75,0.00,,,0.00,0.0,meteohub,2013-01-30 00:34:00,
2013-01-29 19:39:00,67.6,61.2,29.99,East,90,0.0,1.0,75,0.00,,,0.00,0.0,meteohub,2013-01-30 00:39:00,
2013-01-29 19:44:00,67.8,61.3,29.99,South,174,0.0,3.0,75,0.00,,,0.00,0.0,meteohub,2013-01-30 00:44:00,
2013-01-29 19:49:00,67.6,61.2,29.99,South,175,0.0,3.0,75,0.00,,,0.00,0.0,meteohub,2013-01-30 00:49:00,
2013-01-29 19:54:00,67.3,61.5,29.99,SW,216,0.0,3.0,77,0.00,,,0.00,0.0,meteohub,2013-01-30 00:54:00,
2013-01-29 19:59:00,66.6,61.9,30.00,West,273,3.0,3.0,80,0.00,,,0.00,0.0,meteohub,2013-01-30 00:59:00,
2013-01-29 20:04:00,65.8,61.9,30.00,WSW,240,0.0,4.0,82,0.01,,,0.01,0.0,meteohub,2013-01-30 01:04:00,
2013-01-29 20:09:00,65.3,62.1,29.99,SW,221,0.0,4.0,84,0.02,,,0.02,0.0,meteohub,2013-01-30 01:09:00,
2013-01-29 20:14:00,64.8,61.7,29.99,SW,221,0.0,4.0,85,0.02,,,0.02,0.0,meteohub,2013-01-30 01:14:00,
2013-01-29 20:19:00,64.6,61.9,29.99,SW,221,0.0,3.0,86,0.02,,,0.02,0.0,meteohub,2013-01-30 01:19:00,
2013-01-29 20:24:00,64.6,61.9,29.99,SW,221,0.0,2.0,86,0.02,,,0.02,0.0,meteohub,2013-01-30 01:24:00,
2013-01-29 20:29:00,64.4,62.1,29.99,SW,221,0.0,1.0,87,0.02,,,0.02,0.0,meteohub,2013-01-30 01:29:00,
2013-01-29 20:34:00,64.4,62.1,29.99,SW,221,0.0,0.0,87,0.02,,,0.02,0.0,meteohub,2013-01-30 01:34:00,
2013-01-29 20:39:00,64.2,61.9,29.99,SW,221,0.0,0.0,87,0.02,,,0.02,0.0,meteohub,2013-01-30 01:39:00,
2013-01-29 20:44:00,64.2,62.2,29.98,SW,221,0.0,0.0,88,0.03,,,0.03,0.0,meteohub,2013-01-30 01:44:00,
2013-01-29 20:49:00,64.0,62.1,29.98,SW,221,0.0,0.0,88,0.03,,,0.03,0.0,meteohub,2013-01-30 01:49:00,
2013-01-29 20:54:00,64.0,62.1,29.98,SW,221,0.0,0.0,88,0.03,,,0.03,0.0,meteohub,2013-01-30 01:54:00,
2013-01-29 20:59:00,64.0,62.1,29.98,SW,221,0.0,0.0,88,0.02,,,0.03,0.0,meteohub,2013-01-30 01:59:00,
2013-01-29 21:04:00,64.0,62.1,29.98,SW,221,0.0,0.0,88,0.02,,,0.03,0.0,meteohub,2013-01-30 02:04:00,
2013-01-29 21:09:00,64.0,62.1,29.97,SW,221,0.0,0.0,88,0.01,,,0.03,0.0,meteohub,2013-01-30 02:09:00,
2013-01-29 21:14:00,63.9,62.1,29.97,SW,221,0.0,0.0,89,0.01,,,0.03,0.0,meteohub,2013-01-30 02:14:00,
2013-01-29 21:19:00,63.9,61.9,29.97,SW,221,0.0,0.0,88,0.01,,,0.03,0.0,meteohub,2013-01-30 02:19:00,
2013-01-29 21:24:00,63.9,62.1,29.97,SW,221,0.0,0.0,89,0.01,,,0.03,0.0,meteohub,2013-01-30 02:24:00,
2013-01-29 21:29:00,63.9,62.1,29.97,SW,221,0.0,0.0,89,0.01,,,0.03,0.0,meteohub,2013-01-30 02:29:00,
2013-01-29 21:34:00,63.9,62.1,29.97,SW,221,0.0,0.0,89,0.01,,,0.03,0.0,meteohub,2013-01-30 02:34:00,
2013-01-29 21:40:00,63.9,62.1,29.97,SW,221,0.0,0.0,89,0.00,,,0.03,0.0,meteohub,2013-01-30 02:40:00,
2013-01-29 21:45:00,63.9,62.1,29.96,SW,222,0.0,0.0,89,0.00,,,0.03,0.0,meteohub,2013-01-30 02:45:00,
2013-01-29 21:50:00,63.7,61.9,29.97,SW,222,0.0,0.0,89,0.00,,,0.03,0.0,meteohub,2013-01-30 02:50:00,
2013-01-29 21:55:00,63.7,61.9,29.97,SW,222,0.0,1.0,89,0.00,,,0.03,0.0,meteohub,2013-01-30 02:55:00,
2013-01-29 22:00:00,63.7,61.9,29.97,SW,222,0.0,1.0,89,0.00,,,0.03,0.0,meteohub,2013-01-30 03:00:00,
2013-01-29 22:05:00,63.7,61.9,29.97,SW,222,0.0,0.0,89,0.00,,,0.03,0.0,meteohub,2013-01-30 03:05:00,
2013-01-29 22:10:00,63.5,61.7,29.97,SW,222,0.0,0.0,89,0.00,,,0.03,0.0,meteohub,2013-01-30 03:10:00,
2013-01-29 22:15:00,63.5,61.7,29.97,SW,221,0.0,0.0,89,0.00,,,0.03,0.0,meteohub,2013-01-30 03:15:00,
2013-01-29 22:20:00,63.5,61.7,29.96,SW,221,0.0,1.0,89,0.00,,,0.03,0.0,meteohub,2013-01-30 03:20:00,
2013-01-29 22:25:00,63.5,61.7,29.96,SW,221,0.0,1.0,89,0.00,,,0.03,0.0,meteohub,2013-01-30 03:25:00,
2013-01-29 22:30:00,63.3,61.5,29.96,SW,221,0.0,1.0,89,0.00,,,0.03,0.0,meteohub,2013-01-30 03:30:00,
2013-01-29 22:35:00,63.3,61.5,29.96,ENE,74,0.0,1.0,89,0.00,,,0.03,0.0,meteohub,2013-01-30 03:35:00,
2013-01-29 22:40:00,63.3,61.5,29.96,ENE,74,0.0,1.0,89,0.00,,,0.03,0.0,meteohub,2013-01-30 03:40:00,
2013-01-29 22:45:00,63.3,61.5,29.96,ENE,74,0.0,1.0,89,0.00,,,0.03,0.0,meteohub,2013-01-30 03:45:00,
2013-01-29 22:50:00,63.3,61.5,29.96,ENE,74,0.0,1.0,89,0.00,,,0.03,0.0,meteohub,2013-01-30 03:50:00,
2013-01-29 22:55:00,63.3,61.5,29.96,ENE,74,0.0,1.0,89,0.00,,,0.03,0.0,meteohub,2013-01-30 03:55:00,
2013-01-29 23:00:00,63.3,61.5,29.96,ENE,74,0.0,1.0,89,0.00,,,0.03,0.0,meteohub,2013-01-30 04:00:00,
2013-01-29 23:05:00,63.1,61.2,29.96,ENE,74,0.0,1.0,88,0.00,,,0.03,0.0,meteohub,2013-01-30 04:05:00,
2013-01-29 23:10:00,63.1,61.2,29.96,East,84,0.0,1.0,88,0.00,,,0.03,0.0,meteohub,2013-01-30 04:10:00,
2013-01-29 23:15:00,63.1,61.2,29.96,East,84,0.0,1.0,88,0.00,,,0.03,0.0,meteohub,2013-01-30 04:15:00,
2013-01-29 23:20:00,63.0,60.6,29.96,WSW,242,0.0,1.0,87,0.00,,,0.03,0.0,meteohub,2013-01-30 04:20:00,
2013-01-29 23:25:00,63.1,60.8,29.96,SW,229,1.0,8.0,87,0.00,,,0.03,0.0,meteohub,2013-01-30 04:25:00,
2013-01-29 23:30:00,63.1,60.4,29.96,SW,234,3.0,8.0,86,0.00,,,0.03,0.0,meteohub,2013-01-30 04:30:00,
2013-01-29 23:35:00,63.1,59.9,29.95,WSW,239,0.0,8.0,84,0.00,,,0.03,0.0,meteohub,2013-01-30 04:35:00,
2013-01-29 23:40:00,63.3,60.1,29.95,SSW,213,0.0,6.0,84,0.00,,,0.03,0.0,meteohub,2013-01-30 04:40:00,
2013-01-29 23:45:00,63.3,59.7,29.95,West,261,0.0,6.0,83,0.00,,,0.03,0.0,meteohub,2013-01-30 04:45:00,
2013-01-29 23:50:00,63.5,59.5,29.94,SW,227,0.0,4.0,82,0.00,,,0.03,0.0,meteohub,2013-01-30 04:50:00,
2013-01-29 23:55:00,63.5,59.2,29.94,SW,227,0.0,4.0,81,0.00,,,0.03,0.0,meteohub,2013-01-30 04:55:00,